KTWF/TWF METAR and TAF weather

Enter ICAO airport designator
Station Type Date Time Source
KTWF METAR 2019/08/23 14:53 UTC NOAA

KTWF 231453Z 23006KT 10SM CLR 17/07 A3004 RMK AO2 SLP127 T01720067 51009


Station Type Date Time Source
KTWF Decoded METAR 2019/08/23 14:53 UTC NOAA

Station name not available
Aug 23, 2019 - 10:53 AM EDT / 2019.08.23 1453 UTC
Wind: from the SW (230 degrees) at 7 MPH (6 KT):0
Visibility: 10 mile(s):0
Sky conditions: clear
Temperature: 63.0 F (17.2 C)
Dew Point: 44.1 F (6.7 C)
Relative Humidity: 50%
Pressure (altimeter): 30.04 in. Hg (1017 hPa)
Pressure tendency: 0.03 inches (0.9 hPa) higher than three hours ago
ob: KTWF 231453Z 23006KT 10SM CLR 17/07 A3004 RMK AO2 SLP127 T01720067 51009
cycle: 15

Station Type Date Time Source
KTWF TAF 2019/08/23 12:24 UTC NOAA

TAF KTWF 231122Z 2312/2412 22010KT P6SM SKC
FM231800 30010KT P6SM SKC
FM240400 19008KT P6SM SKC

Example: see airport list